Daily Stat PackHorse Racing Tips

Todays Racecards Daily Stat Pack

Our Daily Stat Pack provides you with the details of the best jockeys and trainers at all the courses racing today.

We start by looking for jockeys and trainers who have had a minimum of a 17% strike rate over the course they are running at today…

We recommend that when considering the following runners in your analysis you remove any at 16/1 or higher. To get profitable tips each day based on this data please visit the UKRN Early Bird service here.

Ayr

DATE / TIME HORSE TRAINER TRAINER WINS TRAINER RUNS TRAINER SR
2017-08-12 17:50:00 Dark Confidant D McCain 46 219 21
2017-08-12 18:20:00 Weellan J J Quinn 27 154 17.53
2017-08-12 18:50:00 Eltanin J J Quinn 27 154 17.53
2017-08-12 18:50:00 Termsnconditions T Vaughan 2 11 18.18
2017-08-12 19:50:00 Beauden Barrett J J Quinn 27 154 17.53
2017-08-12 19:50:00 Broadway Dreams Mrs M Fife 8 40 20
2017-08-12 20:50:00 Chebsey Beau J J Quinn 27 154 17.53

Haydock

DATE / TIME HORSE TRAINER TRAINER WINS TRAINER RUNS TRAINER SR
2017-08-12 13:55:00 Azari T Dascombe 75 389 19.28
2017-08-12 13:55:00 Zubayr P Nicholls 27 116 23.28
2017-08-12 13:55:00 Caponova T Dascombe 75 389 19.28
2017-08-12 14:30:00 Autocratic Sir M Stoute 21 116 18.1
2017-08-12 14:30:00 Ayrad R Charlton 18 82 21.95
2017-08-12 14:30:00 Baydar H Palmer 7 37 18.92
2017-08-12 14:30:00 Francis Of Assisi C Appleby 12 69 17.39
2017-08-12 14:30:00 Mount Logan R Varian 34 146 23.29
2017-08-12 15:00:00 Calder Prince T Dascombe 75 389 19.28
2017-08-12 15:00:00 El Cap Sir M Stoute 21 116 18.1
2017-08-12 15:35:00 Simply Me T Dascombe 75 389 19.28
2017-08-12 15:35:00 Dancing Breeze J Gosden 41 160 25.63
2017-08-12 15:35:00 Mittens Sir M Stoute 21 116 18.1
2017-08-12 15:35:00 Queen Of Time H Candy 9 51 17.65
2017-08-12 15:35:00 Sea Of Grace W Haggas 50 164 30.49
2017-08-12 16:05:00 Fire Brigade Michael Bell 25 143 17.48
2017-08-12 16:05:00 Pecheurs De Perles I Jardine 3 12 25
2017-08-12 16:05:00 Sidewinder T Dascombe 75 389 19.28
2017-08-12 16:35:00 Clear Spring J Spearing 6 20 30
DATE / TIME HORSE JOCKEY JOCKEY WINS JOCKEY RUNS JOCKEY SR
2017-08-12 13:55:00 Dance King Rachel Richardson 6 32 18.75
2017-08-12 14:30:00 Ayrad R Kingscote 81 405 20
2017-08-12 14:30:00 Baydar R Kingscote 81 405 20
2017-08-12 15:00:00 Just Hiss Rachel Richardson 6 32 18.75
2017-08-12 15:00:00 Calder Prince R Kingscote 81 405 20
2017-08-12 15:35:00 Conselice C Lee 5 27 18.52
2017-08-12 15:35:00 Simply Me R Kingscote 81 405 20
2017-08-12 16:05:00 Sidewinder R Kingscote 81 405 20
2017-08-12 16:35:00 Somewhere Secret Mr P Dennis 3 17 17.65
2017-08-12 16:35:00 Monks Stand Rachel Richardson 6 32 18.75
2017-08-12 17:05:00 Imperial Legend Rachel Richardson 6 32 18.75

Kilbeggan

DATE / TIME HORSE TRAINER TRAINER WINS TRAINER RUNS TRAINER SR
2017-08-12 17:30:00 Ancient Empire J O’Brien 5 19 26.32
2017-08-12 18:00:00 Mystic Theatre W Mullins 45 131 34.35
2017-08-12 18:00:00 Ten Theatre Mrs J Harrington 17 74 22.97
2017-08-12 19:00:00 Boston Spray J O’Brien 5 19 26.32
2017-08-12 19:00:00 Rock Road M Bowe 7 32 21.88
2017-08-12 19:00:00 Ted L Kenny 2 11 18.18
2017-08-12 19:30:00 A Rated L Kenny 2 11 18.18
2017-08-12 19:30:00 Arkwrisht J O’Brien 5 19 26.32
2017-08-12 20:00:00 Thomond N Meade 33 167 19.76
2017-08-12 20:00:00 A Sizing Network Mrs J Harrington 17 74 22.97
2017-08-12 20:30:00 Itsonlyrocknroll W Mullins 45 131 34.35
DATE / TIME HORSE JOCKEY JOCKEY WINS JOCKEY RUNS JOCKEY SR
2017-08-12 18:00:00 Mystic Theatre P Townend 20 101 19.8
2017-08-12 19:00:00 Wonderoftheworld P Townend 20 101 19.8
2017-08-12 19:30:00 Deputy’s Pass P Townend 20 101 19.8
2017-08-12 20:00:00 Na Trachtalai Abu P Townend 20 101 19.8
2017-08-12 20:30:00 Itsonlyrocknroll Mr P W Mullins 25 56 44.64

Lingfield

DATE / TIME HORSE TRAINER TRAINER WINS TRAINER RUNS TRAINER SR
2017-08-12 17:10:00 Rising B Meehan 12 70 17.14
2017-08-12 17:10:00 Lewinsky H Palmer 7 20 35
2017-08-12 17:40:00 Ocean Drive W Haggas 23 72 31.94
2017-08-12 18:10:00 Spot Lite B Millman 13 73 17.81
2017-08-12 18:40:00 Berkshire Royal A Balding 14 79 17.72
2017-08-12 18:40:00 Harmonica Sir M Prescott 7 27 25.93
2017-08-12 19:40:00 Glenamoy Lad M Wigham 3 14 21.43
2017-08-12 20:10:00 Buxted Dream L Cumani 7 28 25
2017-08-12 20:10:00 Perfect Sense S bin Suroor 11 53 20.75
2017-08-12 20:10:00 Ptarmigan Ridge J Fanshawe 7 21 33.33
2017-08-12 20:10:00 Charleston Belle G Bravery 6 27 22.22
DATE / TIME HORSE JOCKEY JOCKEY WINS JOCKEY RUNS JOCKEY SR
2017-08-12 17:10:00 Outofthequestion M Harley 14 55 25.45
2017-08-12 17:40:00 Ocean Drive P Cosgrave 31 157 19.75
2017-08-12 17:40:00 First Quest M Harley 14 55 25.45
2017-08-12 18:10:00 Cranworth Phoenix E Greatrex 7 28 25
2017-08-12 18:40:00 Pacific Fleet E Greatrex 7 28 25
2017-08-12 19:10:00 D’Waterside E Greatrex 7 28 25
2017-08-12 19:10:00 Belgravian O Murphy 14 72 19.44
2017-08-12 19:10:00 Queens Royale P Cosgrave 31 157 19.75
2017-08-12 19:10:00 Velvet Charm M Harley 14 55 25.45
2017-08-12 19:40:00 Glenamoy Lad S De Sousa 22 94 23.4
2017-08-12 19:40:00 Consulting O Murphy 14 72 19.44
2017-08-12 19:40:00 Perfect Pastime P Cosgrave 31 157 19.75
2017-08-12 20:10:00 Buxted Dream P Cosgrave 31 157 19.75
2017-08-12 20:10:00 Perfect Sense O Murphy 14 72 19.44

Newmarket (July)

DATE / TIME HORSE TRAINER TRAINER WINS TRAINER RUNS TRAINER SR
2017-08-12 14:00:00 Nawassi J Gosden 72 392 18.37
2017-08-12 14:00:00 Peace Trail C Appleby 35 168 20.83
2017-08-12 14:00:00 Simple Thought S Crisford 3 17 17.65
2017-08-12 14:35:00 Gold Town C Appleby 35 168 20.83
2017-08-12 15:40:00 Juliet Capulet J Gosden 72 392 18.37
2017-08-12 15:40:00 Poetic Charm C Appleby 35 168 20.83
2017-08-12 16:50:00 Night Circus C Appleby 35 168 20.83
DATE / TIME HORSE JOCKEY JOCKEY WINS JOCKEY RUNS JOCKEY SR
2017-08-12 14:00:00 Altyn Orda H Bentley 25 146 17.12
2017-08-12 14:00:00 Peace Trail James Doyle 46 253 18.18
2017-08-12 14:35:00 Gold Town James Doyle 46 253 18.18
2017-08-12 15:05:00 Speed Company James Doyle 46 253 18.18
2017-08-12 15:40:00 Capla Temptress H Bentley 25 146 17.12
2017-08-12 15:40:00 Poetic Charm James Doyle 46 253 18.18
2017-08-12 16:15:00 That Is The Spirit H Bentley 25 146 17.12
2017-08-12 16:15:00 Gulliver James Doyle 46 253 18.18
2017-08-12 16:50:00 Night Circus James Doyle 46 253 18.18
2017-08-12 17:20:00 Percy Veer James Doyle 46 253 18.18

Redcar

DATE / TIME HORSE TRAINER TRAINER WINS TRAINER RUNS TRAINER SR
2017-08-12 15:15:00 Right Action R Fahey 77 450 17.11
2017-08-12 15:50:00 Rashford’s Double R Fahey 77 450 17.11
DATE / TIME HORSE JOCKEY JOCKEY WINS JOCKEY RUNS JOCKEY SR
2017-08-12 13:30:00 Sam James N Evans 11 58 18.97
2017-08-12 14:05:00 Betty Grable N Evans 11 58 18.97
2017-08-12 14:40:00 Aprovado Callum Rodriguez 2 10 20
2017-08-12 14:40:00 Jessinamillion N Evans 11 58 18.97
2017-08-12 15:15:00 Curzon Line N Evans 11 58 18.97
2017-08-12 15:50:00 Bouclier N Evans 11 58 18.97
2017-08-12 16:25:00 Rock Island Line N Evans 11 58 18.97
2017-08-12 16:25:00 Graceful Act Callum Rodriguez 2 10 20
2017-08-12 17:00:00 Rock A Doodle Doo N Evans 11 58 18.97
2017-08-12 17:00:00 Oliver’s Gold Callum Rodriguez 2 10 20

Saratoga

DATE / TIME HORSE TRAINER TRAINER WINS TRAINER RUNS TRAINER SR
2017-08-12 23:28:00 American Patriot Todd Pletcher 4 15 26.67
DATE / TIME HORSE JOCKEY JOCKEY WINS JOCKEY RUNS JOCKEY SR
2017-08-12 23:28:00 American Patriot J Velazquez 6 24 25

To find the strongest runners we are looking for those horses that have both a jockey and trainer with over a 17% strike rate in todays race cards. We then check out their stats to find the horses that you should be looking at closely in todays racing based on this information.

We recommend that when considering the following runners in your analysis you remove any at 16/1 or higher.

To get profitable tips each day based on this data please visit the UKRN Early Bird service here.

Today’s strongest runners are:
  • 14:30 Haydock
  • 15:00 Haydock
  • 15:35 Haydock

HORSE: Ayrad

TRAINER: R Charlton

TRAINER STRIKE RATE: 21.95%

JOCKEY: R Kingscote

JOCKEY STRIKE RATE: 20%

S/R FOR THIS GOING: 0%

S/R FOR THIS DISTANCE: 8%

S/R FOR THIS COURSE: 0%

HORSE: Baydar

TRAINER: H Palmer

TRAINER STRIKE RATE: 18.92%

JOCKEY: R Kingscote

JOCKEY STRIKE RATE: 20%

S/R FOR THIS GOING: 0%

S/R FOR THIS DISTANCE: 57%

S/R FOR THIS COURSE: 0%

HORSE: Calder Prince

TRAINER: T Dascombe

TRAINER STRIKE RATE: 19.28%

JOCKEY: R Kingscote

JOCKEY STRIKE RATE: 20%

S/R FOR THIS GOING: 0%

S/R FOR THIS DISTANCE: 20%

S/R FOR THIS COURSE: 50%

HORSE: Simply Me

TRAINER: T Dascombe

TRAINER STRIKE RATE: 19.28%

JOCKEY: R Kingscote

JOCKEY STRIKE RATE: 20%

S/R FOR THIS GOING: 0%

S/R FOR THIS DISTANCE: 33%

S/R FOR THIS COURSE: 0%

  • 16:05 Haydock
  • 18:00 Kilbeggan
  • 19:40 Lingfield

HORSE: Sidewinder

TRAINER: T Dascombe

TRAINER STRIKE RATE: 19.28%

JOCKEY: R Kingscote

JOCKEY STRIKE RATE: 20%

S/R FOR THIS GOING: 0%

S/R FOR THIS DISTANCE: 40%

S/R FOR THIS COURSE: 33.33%

HORSE: Mystic Theatre

TRAINER: W Mullins

TRAINER STRIKE RATE: 34.35%

JOCKEY: P Townend

JOCKEY STRIKE RATE: 19.8%

S/R FOR THIS GOING: 0%

S/R FOR THIS DISTANCE: 100%

S/R FOR THIS COURSE: 100%

HORSE: Glenamoy Lad

TRAINER: M Wigham

TRAINER STRIKE RATE: 21.43%

JOCKEY: S De Sousa

JOCKEY STRIKE RATE: 23.4%

S/R FOR THIS GOING: 0%

S/R FOR THIS DISTANCE: 11%

S/R FOR THIS COURSE: 0%

  • 15:40 Newmarket (July)
  • 16:50 Newmarket (July)

HORSE: Poetic Charm

TRAINER: C Appleby

TRAINER STRIKE RATE: 20.83%

JOCKEY: James Doyle

JOCKEY STRIKE RATE: 18.18%

S/R FOR THIS GOING: 0%

S/R FOR THIS DISTANCE: 100%

S/R FOR THIS COURSE: 100%

HORSE: Night Circus

TRAINER: C Appleby

TRAINER STRIKE RATE: 20.83%

JOCKEY: James Doyle

JOCKEY STRIKE RATE: 18.18%

S/R FOR THIS GOING: 0%

S/R FOR THIS DISTANCE: 50%

S/R FOR THIS COURSE: 0%

* The Daily Stat Pack is a free tool based on statistics from todays racecards that is designed to be combined with your other race analysis.

Tags

Related Articles

Leave a Reply

Your email address will not be published. Required fields are marked *

Close
Close